createdAt,value
2022-08-03T00:00:40.327Z,3.73
2022-08-03T00:03:08.520Z,3.70
2022-08-03T00:05:39.863Z,3.47
2022-08-03T00:08:09.144Z,3.30
2022-08-03T00:10:38.475Z,3.43
2022-08-03T00:13:08.147Z,3.60
2022-08-03T00:15:36.047Z,3.27
2022-08-03T00:18:03.892Z,3.20
2022-08-03T00:20:31.649Z,3.77
2022-08-03T00:22:59.866Z,3.30
2022-08-03T00:25:28.193Z,3.37
2022-08-03T00:27:56.206Z,3.33
2022-08-03T00:30:30.113Z,3.50
2022-08-03T00:32:59.670Z,3.43
2022-08-03T00:35:37.028Z,3.67
2022-08-03T00:38:17.041Z,3.27
2022-08-03T00:40:45.316Z,3.43
2022-08-03T00:43:13.134Z,3.83
2022-08-03T00:45:43.482Z,3.50
2022-08-03T00:48:19.661Z,3.40
2022-08-03T00:51:01.402Z,3.90
2022-08-03T00:53:30.033Z,4.17
2022-08-03T00:55:59.101Z,3.80
2022-08-03T00:58:27.386Z,3.80
2022-08-03T01:00:56.994Z,3.80
2022-08-03T01:03:25.128Z,3.60
2022-08-03T01:05:57.269Z,4.03
2022-08-03T01:08:32.812Z,3.60
2022-08-03T01:11:09.372Z,3.83
2022-08-03T01:14:03.494Z,4.03
2022-08-03T01:16:42.387Z,3.23
2022-08-03T01:19:29.787Z,3.40
2022-08-03T01:22:12.003Z,3.67
2022-08-03T01:24:49.811Z,3.90
2022-08-03T01:27:23.372Z,3.60
2022-08-03T01:30:12.395Z,3.50
2022-08-03T01:33:00.127Z,3.80
2022-08-03T01:35:38.279Z,3.60
2022-08-03T01:38:13.050Z,3.70
2022-08-03T01:40:44.606Z,3.67
2022-08-03T01:44:26.828Z,3.40
2022-08-03T01:46:10.085Z,3.40
2022-08-03T01:48:43.182Z,3.33
2022-08-03T01:51:13.358Z,3.60
2022-08-03T01:53:43.896Z,3.37
2022-08-03T01:56:13.037Z,3.60
2022-08-03T01:58:44.107Z,3.43
2022-08-03T02:01:15.050Z,3.40
2022-08-03T02:04:00.883Z,3.50
2022-08-03T02:07:01.688Z,3.43
2022-08-03T02:09:22.426Z,3.67
2022-08-03T02:11:52.178Z,3.50
2022-08-03T02:14:21.414Z,3.23
2022-08-03T02:16:52.148Z,3.50
2022-08-03T02:19:20.881Z,3.20
2022-08-03T02:21:56.637Z,3.53
2022-08-03T02:24:30.587Z,3.40
2022-08-03T02:27:00.492Z,3.13
2022-08-03T02:29:39.213Z,3.67
2022-08-03T02:32:11.685Z,3.87
2022-08-03T02:34:43.172Z,3.37
2022-08-03T02:37:14.176Z,3.10
2022-08-03T02:39:42.909Z,3.73
2022-08-03T02:42:13.386Z,3.20
2022-08-03T02:44:48.749Z,3.50
2022-08-03T02:47:22.903Z,3.40
2022-08-03T02:49:52.662Z,3.63
2022-08-03T02:52:23.591Z,3.17
2022-08-03T02:54:54.806Z,3.43
2022-08-03T02:57:24.586Z,3.30
2022-08-03T02:59:53.281Z,3.50
2022-08-03T03:02:24.553Z,3.53
2022-08-03T03:05:54.927Z,3.27
2022-08-03T03:07:52.110Z,3.03
2022-08-03T03:10:22.987Z,3.03
2022-08-03T03:12:53.120Z,3.60
2022-08-03T03:15:21.470Z,3.37
2022-08-03T03:17:53.751Z,3.30
2022-08-03T03:20:29.591Z,3.30
2022-08-03T03:23:00.351Z,3.33
2022-08-03T03:25:29.154Z,3.30
2022-08-03T03:27:57.732Z,3.33
2022-08-03T03:30:26.368Z,3.57
2022-08-03T03:32:56.347Z,3.13
2022-08-03T03:35:24.470Z,3.10
2022-08-03T03:37:53.715Z,3.40
2022-08-03T03:40:22.765Z,3.47
2022-08-03T03:42:51.424Z,3.20
2022-08-03T03:45:20.274Z,2.73
2022-08-03T03:47:48.659Z,3.30
2022-08-03T03:50:19.783Z,3.10
2022-08-03T03:52:48.271Z,3.27
2022-08-03T03:55:19.863Z,3.40
2022-08-03T03:57:47.707Z,3.20
2022-08-03T04:00:19.344Z,3.10
2022-08-03T04:02:47.881Z,3.50
2022-08-03T04:05:34.778Z,2.87
2022-08-03T04:08:22.475Z,3.57
2022-08-03T04:11:08.540Z,3.27
2022-08-03T04:13:39.715Z,3.40
2022-08-03T04:16:11.506Z,3.30
2022-08-03T04:18:42.323Z,3.30
2022-08-03T04:21:14.164Z,3.63
2022-08-03T04:23:45.919Z,3.00
2022-08-03T04:26:16.306Z,2.83
2022-08-03T04:28:46.532Z,3.03
2022-08-03T04:31:16.173Z,3.37
2022-08-03T04:33:45.991Z,3.30
2022-08-03T04:36:20.964Z,2.87
2022-08-03T04:38:57.046Z,3.00
2022-08-03T04:41:27.115Z,3.43
2022-08-03T04:43:57.553Z,3.60
2022-08-03T04:46:28.519Z,3.10
2022-08-03T04:48:57.983Z,3.40
2022-08-03T04:51:28.224Z,3.43
2022-08-03T04:53:56.142Z,3.20
2022-08-03T04:56:24.205Z,3.30
2022-08-03T04:58:53.169Z,3.60
2022-08-03T05:01:22.733Z,3.10
2022-08-03T05:03:51.636Z,3.20
2022-08-03T05:06:19.957Z,3.13
2022-08-03T05:08:56.618Z,3.07
2022-08-03T05:11:25.023Z,3.40
2022-08-03T05:13:53.994Z,3.27
2022-08-03T05:16:22.564Z,3.40
2022-08-03T05:18:51.775Z,3.33
2022-08-03T05:21:19.894Z,3.30
2022-08-03T05:23:48.446Z,3.20
2022-08-03T05:26:18.408Z,3.50
2022-08-03T05:28:50.880Z,3.33
2022-08-03T05:31:19.923Z,3.13
2022-08-03T05:33:49.052Z,3.60
2022-08-03T05:36:17.411Z,3.20
2022-08-03T05:38:45.104Z,3.17
2022-08-03T05:41:22.857Z,3.10
2022-08-03T05:43:54.443Z,3.20
2022-08-03T05:46:22.805Z,3.57
2022-08-03T05:48:51.178Z,3.33
2022-08-03T05:51:19.334Z,3.00
2022-08-03T05:53:47.111Z,2.90
2022-08-03T05:56:16.690Z,2.97
2022-08-03T05:58:46.075Z,3.33
2022-08-03T06:01:16.174Z,2.80
2022-08-03T06:03:44.625Z,2.80
2022-08-03T06:06:12.643Z,2.57
2022-08-03T06:08:40.897Z,2.57
2022-08-03T06:11:09.232Z,3.00
2022-08-03T06:13:37.713Z,3.20
2022-08-03T06:16:07.140Z,3.20
2022-08-03T06:18:37.049Z,2.83
2022-08-03T06:21:14.509Z,3.00
2022-08-03T06:23:53.450Z,3.00
2022-08-03T06:26:25.191Z,2.70
2022-08-03T06:28:54.402Z,2.90
2022-08-03T06:31:24.256Z,3.30
2022-08-03T06:34:32.542Z,2.80
2022-08-03T06:36:41.784Z,2.50
2022-08-03T06:39:10.154Z,3.00
2022-08-03T06:41:44.570Z,2.80
2022-08-03T06:44:13.110Z,2.97
2022-08-03T06:46:42.353Z,2.50
2022-08-03T06:49:12.543Z,2.70
2022-08-03T06:52:05.933Z,2.23
2022-08-03T06:54:30.205Z,2.47
2022-08-03T06:57:03.847Z,2.60
2022-08-03T07:00:06.399Z,2.13
2022-08-03T07:02:20.428Z,2.60
2022-08-03T07:04:50.608Z,2.23
2022-08-03T07:07:19.538Z,2.57
2022-08-03T07:09:55.755Z,2.40
2022-08-03T07:12:25.517Z,2.30
2022-08-03T07:14:56.697Z,2.20
2022-08-03T07:17:28.787Z,2.53
2022-08-03T07:19:58.198Z,2.27
2022-08-03T07:22:25.948Z,2.50
2022-08-03T07:24:53.947Z,2.23
2022-08-03T07:27:22.516Z,2.30
2022-08-03T07:29:50.701Z,2.30
2022-08-03T07:32:18.866Z,2.33
2022-08-03T07:34:47.153Z,2.60
2022-08-03T07:37:16.251Z,2.20
2022-08-03T07:39:44.008Z,2.17
2022-08-03T07:42:12.151Z,2.10
2022-08-03T07:44:41.061Z,2.30
2022-08-03T07:47:09.188Z,2.17
2022-08-03T07:49:41.261Z,2.40
2022-08-03T07:52:26.507Z,2.13
2022-08-03T07:54:57.722Z,2.67
2022-08-03T07:57:26.154Z,2.43
2022-08-03T08:00:02.006Z,2.17
2022-08-03T08:02:30.706Z,2.40
2022-08-03T08:05:02.149Z,2.23
2022-08-03T08:07:33.428Z,1.80
2022-08-03T08:10:03.220Z,2.13
2022-08-03T08:12:31.123Z,1.83
2022-08-03T08:14:58.908Z,2.17
2022-08-03T08:17:26.668Z,2.23
2022-08-03T08:19:54.506Z,2.70
2022-08-03T08:22:29.883Z,2.50
2022-08-03T08:25:03.661Z,2.95
2022-08-03T08:28:29.507Z,2.65
2022-08-03T08:30:22.791Z,1.92
2022-08-03T08:32:51.964Z,2.08
2022-08-03T08:35:21.029Z,2.38
2022-08-03T08:37:51.469Z,1.92
2022-08-03T08:40:22.115Z,2.45
2022-08-03T08:42:58.880Z,2.60
2022-08-03T08:45:27.793Z,2.50
2022-08-03T08:48:04.466Z,1.92
2022-08-03T08:50:38.461Z,1.98
2022-08-03T08:53:09.642Z,2.10
2022-08-03T08:55:59.189Z,2.20
2022-08-03T08:58:31.649Z,2.25
2022-08-03T09:00:59.992Z,1.98
2022-08-03T09:03:29.905Z,1.90
2022-08-03T09:06:04.251Z,2.15
2022-08-03T09:08:33.465Z,1.90
2022-08-03T09:11:02.146Z,1.55
2022-08-03T09:13:32.114Z,1.60
2022-08-03T09:16:18.336Z,1.98
2022-08-03T09:18:49.213Z,1.80
2022-08-03T09:21:32.926Z,1.67
2022-08-03T09:24:05.665Z,1.88
2022-08-03T09:26:36.910Z,1.63
2022-08-03T09:29:13.913Z,1.80
2022-08-03T09:31:45.777Z,1.42
2022-08-03T09:34:31.559Z,1.88
2022-08-03T09:37:01.877Z,1.98
2022-08-03T09:39:40.924Z,1.63
2022-08-03T09:42:14.445Z,1.60
2022-08-03T09:44:47.620Z,1.83
2022-08-03T09:47:17.360Z,3.10
2022-08-03T09:49:59.148Z,1.80
2022-08-03T09:52:50.043Z,1.80
2022-08-03T09:56:32.509Z,1.63
2022-08-03T09:58:15.307Z,1.80
2022-08-03T10:01:04.076Z,1.90
2022-08-03T10:04:02.957Z,1.80
2022-08-03T10:06:28.966Z,1.63
2022-08-03T10:09:08.086Z,1.75
2022-08-03T10:11:41.400Z,1.90
2022-08-03T10:14:20.656Z,1.60
2022-08-03T10:16:54.904Z,1.65
2022-08-03T10:19:23.041Z,1.65
2022-08-03T10:21:56.723Z,1.80
2022-08-03T10:24:28.194Z,2.00
2022-08-03T10:27:08.285Z,2.00
2022-08-03T10:29:39.578Z,2.05
2022-08-03T10:32:17.803Z,1.63
2022-08-03T10:34:46.884Z,1.85
2022-08-03T10:37:17.925Z,1.80
2022-08-03T10:39:54.833Z,1.80
2022-08-03T10:42:26.588Z,1.80
2022-08-03T10:45:02.674Z,1.73
2022-08-03T10:47:36.663Z,1.85
2022-08-03T10:50:05.970Z,1.50
2022-08-03T10:52:39.525Z,1.63
2022-08-03T10:56:02.076Z,1.70
2022-08-03T10:58:57.212Z,2.08
2022-08-03T11:01:59.168Z,1.70
2022-08-03T11:04:30.787Z,1.60
2022-08-03T11:07:22.375Z,1.75
2022-08-03T11:09:53.385Z,1.55
2022-08-03T11:12:28.426Z,1.90
2022-08-03T11:15:05.768Z,1.95
2022-08-03T11:17:46.337Z,1.80
2022-08-03T11:20:50.999Z,1.65
2022-08-03T11:24:02.418Z,1.70
2022-08-03T11:26:29.302Z,1.65
2022-08-03T11:29:32.223Z,1.80
2022-08-03T11:32:01.248Z,1.70
2022-08-03T11:34:31.410Z,2.00
2022-08-03T11:37:28.582Z,1.75
2022-08-03T11:40:02.667Z,1.60
2022-08-03T11:42:41.501Z,1.80
2022-08-03T11:45:11.409Z,1.58
2022-08-03T11:47:51.022Z,1.80
2022-08-03T11:50:27.615Z,1.67
2022-08-03T11:52:57.125Z,1.50
2022-08-03T11:55:30.295Z,1.65
2022-08-03T11:59:18.284Z,1.77
2022-08-03T12:00:51.455Z,2.10
2022-08-03T12:03:25.195Z,1.83
2022-08-03T12:06:04.856Z,1.60
2022-08-03T12:08:35.863Z,1.73
2022-08-03T12:11:07.242Z,1.92
2022-08-03T12:14:45.121Z,2.00
2022-08-03T12:16:35.039Z,1.83
2022-08-03T12:19:08.220Z,2.33
2022-08-03T12:21:38.847Z,1.70
2022-08-03T12:24:09.182Z,2.35
2022-08-03T12:26:58.289Z,1.60
2022-08-03T12:29:28.470Z,1.70
2022-08-03T12:31:58.303Z,1.92
2022-08-03T12:34:49.168Z,1.73
2022-08-03T12:37:23.609Z,1.70
2022-08-03T12:40:02.195Z,1.90
2022-08-03T12:42:32.175Z,2.38
2022-08-03T12:44:59.869Z,4.18
2022-08-03T12:47:28.299Z,4.90
2022-08-03T12:49:57.078Z,3.00
2022-08-03T12:52:27.413Z,1.70
2022-08-03T12:54:58.723Z,1.75
2022-08-03T12:57:26.898Z,1.75
2022-08-03T12:59:55.971Z,2.00
2022-08-03T13:02:26.008Z,1.92
2022-08-03T13:04:56.070Z,2.00
2022-08-03T13:07:24.542Z,2.22
2022-08-03T13:09:54.276Z,3.08
2022-08-03T13:12:25.251Z,1.90
2022-08-03T13:14:55.011Z,2.05
2022-08-03T13:17:23.048Z,2.00
2022-08-03T13:19:51.411Z,2.15
2022-08-03T13:22:21.844Z,1.70
2022-08-03T13:24:51.927Z,2.03
2022-08-03T13:28:01.838Z,1.90
2022-08-03T13:30:12.712Z,1.90
2022-08-03T13:32:40.866Z,2.00
2022-08-03T13:35:10.516Z,1.85
2022-08-03T13:37:39.721Z,2.03
2022-08-03T13:40:09.327Z,1.80
2022-08-03T13:42:39.734Z,1.75
2022-08-03T13:45:11.591Z,1.92
2022-08-03T13:47:39.481Z,2.08
2022-08-03T13:50:07.841Z,1.90
2022-08-03T13:52:36.975Z,2.10
2022-08-03T13:55:07.314Z,1.90
2022-08-03T13:58:04.185Z,2.30
2022-08-03T14:00:28.558Z,2.03
2022-08-03T14:03:05.348Z,2.60
2022-08-03T14:05:38.582Z,2.00
2022-08-03T14:08:07.612Z,2.00
2022-08-03T14:10:40.874Z,2.58
2022-08-03T14:13:09.411Z,1.70
2022-08-03T14:15:38.985Z,1.85
2022-08-03T14:18:27.688Z,1.90
2022-08-03T14:21:05.505Z,1.80
2022-08-03T14:23:36.730Z,2.22
2022-08-03T14:26:05.849Z,2.20
2022-08-03T14:28:34.175Z,1.77
2022-08-03T14:31:08.386Z,2.10
2022-08-03T14:33:44.176Z,2.22
2022-08-03T14:36:12.322Z,1.70
2022-08-03T14:38:40.034Z,1.85
2022-08-03T14:41:12.376Z,1.67
2022-08-03T14:44:01.333Z,1.80
2022-08-03T14:46:32.976Z,2.05
2022-08-03T14:50:29.741Z,2.17
2022-08-03T14:51:51.685Z,2.30
2022-08-03T14:54:21.650Z,2.00
2022-08-03T14:56:49.827Z,2.15
2022-08-03T14:59:18.227Z,2.30
2022-08-03T15:02:02.138Z,1.90
2022-08-03T15:04:32.300Z,2.33
2022-08-03T15:07:00.236Z,1.98
2022-08-03T15:09:28.106Z,2.00
2022-08-03T15:11:56.228Z,2.13
2022-08-03T15:14:32.492Z,1.73
2022-08-03T15:17:04.398Z,2.05
2022-08-03T15:20:04.061Z,1.90
2022-08-03T15:22:34.676Z,1.90
2022-08-03T15:25:07.042Z,2.20
2022-08-03T15:28:03.036Z,2.20
2022-08-03T15:30:36.096Z,1.80
2022-08-03T15:33:06.333Z,2.00
2022-08-03T15:35:34.796Z,1.95
2022-08-03T15:38:07.311Z,2.10
2022-08-03T15:40:36.977Z,1.98
2022-08-03T15:43:04.999Z,1.92
2022-08-03T15:45:35.457Z,2.00
2022-08-03T15:48:06.321Z,2.10
2022-08-03T15:50:34.262Z,1.77
2022-08-03T15:53:02.349Z,2.35
2022-08-03T15:55:33.881Z,2.10
2022-08-03T15:59:07.604Z,1.85
2022-08-03T16:00:56.945Z,2.00
2022-08-03T16:03:28.340Z,2.25
2022-08-03T16:05:56.110Z,2.10
2022-08-03T16:08:24.512Z,2.05
2022-08-03T16:10:52.521Z,2.10
2022-08-03T16:13:21.148Z,1.98
2022-08-03T16:15:49.050Z,1.80
2022-08-03T16:18:17.187Z,1.85
2022-08-03T16:20:46.992Z,1.88
2022-08-03T16:23:16.377Z,1.90
2022-08-03T16:25:44.448Z,2.05
2022-08-03T16:28:17.684Z,3.40
2022-08-03T16:30:47.978Z,2.67
2022-08-03T16:33:17.852Z,2.10
2022-08-03T16:35:49.603Z,2.33
2022-08-03T16:38:19.337Z,2.22
2022-08-03T16:40:51.665Z,2.30
2022-08-03T16:43:23.214Z,2.20
2022-08-03T16:45:50.976Z,2.10
2022-08-03T16:48:20.048Z,2.28
2022-08-03T16:50:50.282Z,2.10
2022-08-03T16:53:51.616Z,2.13
2022-08-03T16:56:10.073Z,2.28
2022-08-03T16:58:42.556Z,2.00
2022-08-03T17:01:20.853Z,2.17
2022-08-03T17:03:57.133Z,2.13
2022-08-03T17:06:34.363Z,2.10
2022-08-03T17:09:03.386Z,2.10
2022-08-03T17:11:32.968Z,2.13
2022-08-03T17:14:01.114Z,3.00
2022-08-03T17:16:31.459Z,3.45
2022-08-03T17:19:04.102Z,2.42
2022-08-03T17:21:39.041Z,2.60
2022-08-03T17:24:11.997Z,3.15
2022-08-03T17:26:43.310Z,2.47
2022-08-03T17:29:14.077Z,2.67
2022-08-03T17:31:49.119Z,1.80
2022-08-03T17:34:19.410Z,2.17
2022-08-03T17:37:05.984Z,2.05
2022-08-03T17:42:29.630Z,2.42
2022-08-03T17:45:02.050Z,1.90
2022-08-03T17:47:42.279Z,2.13
2022-08-03T17:50:24.149Z,2.10
2022-08-03T17:53:07.154Z,2.15
2022-08-03T17:55:56.536Z,2.17
2022-08-03T17:58:41.386Z,2.55
2022-08-03T18:02:00.274Z,2.55
2022-08-03T18:04:30.145Z,2.50
2022-08-03T18:07:11.100Z,2.30
2022-08-03T18:10:03.252Z,2.10
2022-08-03T18:12:53.456Z,1.95
2022-08-03T18:15:30.515Z,2.22
2022-08-03T18:18:10.763Z,2.00
2022-08-03T18:20:42.402Z,1.95
2022-08-03T18:23:25.479Z,1.95
2022-08-03T18:26:12.077Z,2.38
2022-08-03T18:28:40.713Z,2.30
2022-08-03T18:31:11.888Z,2.10
2022-08-03T18:34:19.856Z,1.80
2022-08-03T18:36:30.391Z,2.10
2022-08-03T18:39:01.747Z,2.08
2022-08-03T18:41:34.643Z,1.98
2022-08-03T18:44:08.916Z,1.67
2022-08-03T18:47:07.388Z,2.10
2022-08-03T18:49:54.352Z,2.92
2022-08-03T18:52:27.675Z,2.10
2022-08-03T18:55:14.059Z,2.20
2022-08-03T18:57:57.199Z,2.10
2022-08-03T19:00:42.630Z,2.20
2022-08-03T19:03:23.821Z,2.20
2022-08-03T19:06:02.981Z,2.10
2022-08-03T19:08:42.587Z,2.47
2022-08-03T19:11:16.044Z,2.20
2022-08-03T19:13:50.729Z,2.00
2022-08-03T19:16:27.846Z,2.20
2022-08-03T19:18:56.879Z,2.55
2022-08-03T19:21:26.608Z,2.45
2022-08-03T19:23:56.172Z,2.20
2022-08-03T19:26:30.141Z,2.13
2022-08-03T19:29:00.634Z,1.95
2022-08-03T19:31:31.127Z,2.22
2022-08-03T19:34:03.818Z,1.83
2022-08-03T19:36:34.368Z,1.95
2022-08-03T19:39:09.245Z,1.75
2022-08-03T19:41:41.964Z,1.88
2022-08-03T19:44:20.263Z,1.80
2022-08-03T19:46:53.450Z,1.83
2022-08-03T19:50:05.885Z,1.75
2022-08-03T19:52:16.063Z,2.03
2022-08-03T19:54:54.092Z,2.75
2022-08-03T19:57:24.989Z,2.03
2022-08-03T19:59:55.744Z,2.10
2022-08-03T20:02:26.767Z,2.00
2022-08-03T20:07:48.606Z,2.05
2022-08-03T20:10:17.610Z,1.90
2022-08-03T20:12:46.380Z,1.80
2022-08-03T20:15:22.265Z,2.13
2022-08-03T20:17:59.130Z,1.95
2022-08-03T20:20:29.941Z,1.70
2022-08-03T20:23:00.058Z,1.80
2022-08-03T20:25:37.886Z,2.40
2022-08-03T20:28:13.423Z,1.63
2022-08-03T20:30:47.483Z,2.30
2022-08-03T20:33:18.712Z,2.13
2022-08-03T20:35:50.199Z,1.77
2022-08-03T20:38:19.262Z,2.40
2022-08-03T20:40:48.375Z,2.22
2022-08-03T20:43:16.657Z,2.00
2022-08-03T20:45:59.966Z,1.88
2022-08-03T20:48:39.178Z,2.20
2022-08-03T20:51:19.527Z,2.10
2022-08-03T20:54:00.337Z,1.83
2022-08-03T20:56:33.598Z,1.70
2022-08-03T20:59:04.140Z,2.10
2022-08-03T21:01:36.426Z,1.55
2022-08-03T21:04:09.385Z,2.00
2022-08-03T21:06:45.719Z,2.10
2022-08-03T21:09:33.373Z,2.20
2022-08-03T21:12:09.515Z,2.00
2022-08-03T21:13:03.418Z,2.10
2022-08-03T21:14:40.382Z,1.92
2022-08-03T21:17:19.432Z,2.05
2022-08-03T21:19:59.669Z,1.92
2022-08-03T21:22:33.251Z,2.33
2022-08-03T21:25:05.073Z,2.20
2022-08-03T21:27:33.616Z,2.58
2022-08-03T21:30:03.825Z,2.28
2022-08-03T21:32:34.149Z,2.40
2022-08-03T21:35:02.842Z,2.22
2022-08-03T21:37:33.754Z,2.22
2022-08-03T21:40:02.455Z,2.55
2022-08-03T21:42:32.927Z,2.35
2022-08-03T21:45:01.176Z,2.60
2022-08-03T21:47:29.514Z,2.33
2022-08-03T21:50:08.821Z,2.38
2022-08-03T21:52:47.594Z,2.95
2022-08-03T21:55:20.658Z,2.78
2022-08-03T21:58:02.520Z,2.75
2022-08-03T22:00:34.006Z,2.40
2022-08-03T22:03:15.416Z,3.20
2022-08-03T22:05:48.173Z,2.75
2022-08-03T22:08:16.745Z,2.63
2022-08-03T22:10:45.744Z,3.35
2022-08-03T22:13:15.190Z,2.63
2022-08-03T22:15:43.387Z,2.80
2022-08-03T22:18:12.218Z,2.35
2022-08-03T22:20:40.232Z,2.72
2022-08-03T22:23:10.478Z,2.40
2022-08-03T22:25:40.906Z,2.70
2022-08-03T22:28:11.464Z,2.20
2022-08-03T22:30:40.478Z,2.20
2022-08-03T22:33:12.266Z,2.50
2022-08-03T22:35:44.308Z,2.50
2022-08-03T22:38:19.115Z,2.08
2022-08-03T22:40:51.277Z,2.45
2022-08-03T22:43:19.158Z,2.45
2022-08-03T22:46:09.528Z,2.65
2022-08-03T22:48:40.861Z,2.38
2022-08-03T22:51:09.604Z,2.70
2022-08-03T22:53:41.778Z,2.15
2022-08-03T22:56:10.140Z,2.47
2022-08-03T22:58:39.228Z,2.30
2022-08-03T23:01:09.342Z,2.40
2022-08-03T23:03:59.830Z,3.30
2022-08-03T23:06:35.312Z,2.28
2022-08-03T23:09:07.370Z,2.15
2022-08-03T23:11:38.109Z,2.42
2022-08-03T23:14:14.149Z,2.28
2022-08-03T23:16:44.347Z,2.40
2022-08-03T23:19:17.058Z,2.53
2022-08-03T23:22:02.500Z,2.10
2022-08-03T23:24:35.882Z,2.50
2022-08-03T23:27:04.589Z,2.40
2022-08-03T23:29:35.142Z,2.37
2022-08-03T23:32:03.445Z,2.83
2022-08-03T23:34:49.701Z,2.47
2022-08-03T23:37:18.164Z,2.47
2022-08-03T23:39:49.442Z,2.45
2022-08-03T23:42:19.791Z,2.30
2022-08-03T23:44:48.238Z,2.30
2022-08-03T23:47:16.096Z,2.55
2022-08-03T23:49:44.621Z,2.73
2022-08-03T23:52:19.708Z,2.83
2022-08-03T23:55:00.686Z,2.70
2022-08-03T23:57:37.757Z,2.10
